Time;durP1;ratioP1;P1;durP2;ratioP2;P2;SDS_P1;SDS_P2;PMS_P1;PMS_P2;Temp;Humidity;BMP_temperature;BMP_pressure;BME280_temperature;BME280_humidity;BME280_pressure;Samples;Min_cycle;Max_cycle;Signal;HPM_P1;HPM_P2
2024/03/18 00:00:46;;;;;;;;;;;;;;;18.62;61.32;100882.56;7388320;19;1739;-36
2024/03/18 00:03:14;;;;;;;;;;;;;;;18.57;61.29;100879.41;7385862;19;1713;-36
2024/03/18 00:05:44;;;;;;;;;;;;;;;18.46;61.70;100883.00;7387243;19;1628;-36
2024/03/18 00:08:14;;;;;;;;;;;;;;;18.55;61.51;100873.34;7372563;19;1760;-36
2024/03/18 00:10:45;;;;;;;;;;;;;;;18.52;61.56;100860.19;7385998;19;1735;-36
2024/03/18 00:13:13;;;;;;;;;;;;;;;18.48;61.58;100869.47;7388729;19;1635;-36
2024/03/18 00:15:42;;;;;;;;;;;;;;;18.54;61.62;100863.59;7387798;19;1715;-37
2024/03/18 00:18:11;;;;;;;;;;;;;;;18.56;61.35;100855.44;7387167;19;1278;-36
2024/03/18 00:20:39;;;;;;;;;;;;;;;18.59;61.57;100847.16;7386612;19;1839;-36
2024/03/18 00:23:08;;;;;;;;;;;;;;;18.57;61.57;100862.50;7388119;19;1939;-36
2024/03/18 00:25:36;;;;;;;;;;;;;;;18.59;61.54;100852.50;7387048;19;1779;-36
2024/03/18 00:28:10;;;;;;;;;;;;;;;18.50;61.67;100846.09;7387558;19;1610;-41
2024/03/18 00:30:39;;;;;;;;;;;;;;;18.55;61.56;100849.25;7386541;19;1700;-36
2024/03/18 00:33:08;;;;;;;;;;;;;;;18.58;61.28;100838.28;7385258;19;1460;-36
2024/03/18 00:35:37;;;;;;;;;;;;;;;18.49;61.71;100855.13;7386467;19;1835;-36
2024/03/18 00:38:05;;;;;;;;;;;;;;;18.50;61.76;100835.38;7384935;19;1815;-36
2024/03/18 00:40:34;;;;;;;;;;;;;;;18.55;61.59;100840.38;7386171;19;1883;-36
2024/03/18 00:43:00;;;;;;;;;;;;;;;18.60;61.67;100820.25;7386942;19;1578;-36
2024/03/18 00:45:31;;;;;;;;;;;;;;;18.58;61.38;100827.56;7387897;19;1846;-36
2024/03/18 00:47:59;;;;;;;;;;;;;;;18.65;61.23;100825.19;7385906;19;998;-37
2024/03/18 00:50:28;;;;;;;;;;;;;;;18.56;61.43;100817.94;7387167;19;1884;-36
2024/03/18 00:52:56;;;;;;;;;;;;;;;18.60;61.73;100827.41;7383606;19;1826;-36
2024/03/18 00:55:25;;;;;;;;;;;;;;;18.51;61.86;100813.00;7387516;19;966;-36
2024/03/18 00:57:54;;;;;;;;;;;;;;;18.54;61.83;100814.53;7385611;19;1797;-36
2024/03/18 01:00:23;;;;;;;;;;;;;;;18.53;61.79;100808.34;7385569;19;1863;-37
2024/03/18 01:02:55;;;;;;;;;;;;;;;18.53;61.57;100803.00;7384814;19;1711;-36
2024/03/18 01:05:24;;;;;;;;;;;;;;;18.53;61.42;100808.34;7387219;19;1606;-36
2024/03/18 01:07:52;;;;;;;;;;;;;;;18.57;61.61;100804.44;7369055;19;2514;-36
2024/03/18 01:10:21;;;;;;;;;;;;;;;18.55;61.56;100810.91;7385758;19;1839;-37
2024/03/18 01:12:49;;;;;;;;;;;;;;;18.54;61.53;100806.50;7384428;19;2497;-36
2024/03/18 01:15:18;;;;;;;;;;;;;;;18.52;61.38;100790.56;7387356;19;1004;-36
2024/03/18 01:17:47;;;;;;;;;;;;;;;18.53;61.61;100800.31;7386556;19;1142;-36
2024/03/18 01:20:19;;;;;;;;;;;;;;;18.55;61.53;100805.56;7384662;19;2109;-36
2024/03/18 01:22:48;;;;;;;;;;;;;;;18.58;61.46;100799.91;7385886;19;1815;-36
2024/03/18 01:25:17;;;;;;;;;;;;;;;18.43;61.89;100794.06;7387127;19;1117;-36
2024/03/18 01:27:46;;;;;;;;;;;;;;;18.57;61.35;100787.50;7386109;19;1718;-36
2024/03/18 01:30:16;;;;;;;;;;;;;;;18.51;61.62;100799.59;7384267;19;1528;-36
2024/03/18 01:32:46;;;;;;;;;;;;;;;18.43;61.89;100788.69;7383444;19;1718;-36
2024/03/18 01:35:15;;;;;;;;;;;;;;;18.16;61.88;100771.31;7385228;19;1667;-36
2024/03/18 01:37:46;;;;;;;;;;;;;;;18.52;61.70;100795.94;7385028;19;1738;-36
2024/03/18 01:40:15;;;;;;;;;;;;;;;18.44;61.82;100775.19;7384120;19;1843;-36
2024/03/18 01:42:44;;;;;;;;;;;;;;;18.49;61.71;100791.69;7386250;19;1327;-36
2024/03/18 01:45:13;;;;;;;;;;;;;;;18.45;61.70;100790.25;7385797;19;1195;-36
2024/03/18 01:47:42;;;;;;;;;;;;;;;18.45;61.63;100784.06;7387021;19;945;-36
2024/03/18 01:50:13;;;;;;;;;;;;;;;18.45;61.74;100789.41;7384747;19;1584;-36
2024/03/18 01:52:41;;;;;;;;;;;;;;;18.50;61.71;100797.88;7385371;19;1849;-36
2024/03/18 01:55:13;;;;;;;;;;;;;;;18.39;61.84;100787.25;7385035;19;1833;-36
2024/03/18 01:57:43;;;;;;;;;;;;;;;18.48;61.73;100800.72;7384447;19;1800;-36
2024/03/18 02:00:15;;;;;;;;;;;;;;;18.40;61.89;100792.50;7384513;19;1849;-36
2024/03/18 02:02:43;;;;;;;;;;;;;;;18.29;62.19;100801.44;7392418;19;1702;-36
2024/03/18 02:05:14;;;;;;;;;;;;;;;18.38;62.20;100793.59;7392475;19;1323;-36
2024/03/18 02:07:42;;;;;;;;;;;;;;;18.98;60.91;100800.03;7378264;19;1650;-37
2024/03/18 02:10:14;;;;;;;;;;;;;;;19.61;59.49;100804.28;7392865;19;1731;-36
2024/03/18 02:12:43;;;;;;;;;;;;;;;19.78;59.06;100792.09;7392385;19;1781;-36
2024/03/18 02:15:11;;;;;;;;;;;;;;;19.71;59.40;100785.53;7392950;19;1075;-36
2024/03/18 02:17:40;;;;;;;;;;;;;;;19.78;59.34;100784.03;7392364;19;1873;-36
2024/03/18 02:20:10;;;;;;;;;;;;;;;19.90;59.13;100793.63;7390275;19;1853;-37
2024/03/18 02:22:42;;;;;;;;;;;;;;;19.96;59.09;100797.59;7391184;19;1465;-36
2024/03/18 02:25:11;;;;;;;;;;;;;;;20.12;58.40;100802.41;7392090;19;1742;-36
2024/03/18 02:27:39;;;;;;;;;;;;;;;20.14;58.39;100790.50;7391019;19;1681;-36
2024/03/18 02:30:09;;;;;;;;;;;;;;;20.12;58.80;100779.06;7389228;19;1704;-36
2024/03/18 02:32:41;;;;;;;;;;;;;;;20.18;58.60;100781.19;7390286;19;1602;-36
2024/03/18 02:35:11;;;;;;;;;;;;;;;20.19;58.51;100776.66;7392385;19;1047;-36
2024/03/18 02:37:43;;;;;;;;;;;;;;;20.15;58.54;100780.63;7392092;19;1770;-36
2024/03/18 02:40:12;;;;;;;;;;;;;;;20.30;58.26;100783.72;7389933;19;1873;-36
2024/03/18 02:42:42;;;;;;;;;;;;;;;20.43;57.99;100773.50;7391071;19;1965;-36
2024/03/18 02:45:12;;;;;;;;;;;;;;;20.38;58.33;100778.47;7390360;19;1568;-36
2024/03/18 02:47:40;;;;;;;;;;;;;;;20.34;58.27;100772.53;7390953;19;1824;-36
2024/03/18 02:50:10;;;;;;;;;;;;;;;20.39;58.37;100783.72;7389856;19;1743;-36
2024/03/18 02:52:39;;;;;;;;;;;;;;;20.47;58.22;100772.22;7390103;19;1710;-36
2024/03/18 02:55:11;;;;;;;;;;;;;;;20.43;58.32;100773.50;7391515;19;952;-36
2024/03/18 02:57:40;;;;;;;;;;;;;;;20.35;58.33;100771.56;7387574;19;1867;-37
2024/03/18 03:00:10;;;;;;;;;;;;;;;20.35;58.39;100781.44;7388124;19;1881;-36
2024/03/18 03:02:39;;;;;;;;;;;;;;;20.42;58.14;100777.19;7390790;19;1754;-36
2024/03/18 03:05:07;;;;;;;;;;;;;;;20.42;58.14;100771.81;7389394;19;1655;-36
2024/03/18 03:07:36;;;;;;;;;;;;;;;20.46;58.26;100781.28;7387749;19;1718;-36
2024/03/18 03:10:05;;;;;;;;;;;;;;;20.49;58.28;100786.34;7380179;19;1828;-36
2024/03/18 03:12:36;;;;;;;;;;;;;;;20.45;58.26;100780.44;7390752;19;932;-37
2024/03/18 03:15:05;;;;;;;;;;;;;;;20.54;58.14;100783.25;7390027;19;1818;-36
2024/03/18 03:17:34;;;;;;;;;;;;;;;20.53;58.10;100801.22;7389631;19;1818;-36
2024/03/18 03:20:07;;;;;;;;;;;;;;;20.49;58.27;100788.19;7387543;19;1844;-37
2024/03/18 03:22:36;;;;;;;;;;;;;;;20.52;58.18;100802.19;7390138;19;1729;-37
2024/03/18 03:25:05;;;;;;;;;;;;;;;20.56;57.95;100790.16;7391755;19;1355;-36
2024/03/18 03:27:37;;;;;;;;;;;;;;;20.58;58.23;100793.56;7391524;19;1812;-36
2024/03/18 03:30:05;;;;;;;;;;;;;;;20.56;58.04;100794.69;7390229;19;1607;-37
2024/03/18 03:32:34;;;;;;;;;;;;;;;20.60;58.00;100796.97;7392409;19;1829;-36
2024/03/18 03:35:02;;;;;;;;;;;;;;;20.66;58.07;100793.69;7391541;19;1522;-36
2024/03/18 03:37:31;;;;;;;;;;;;;;;20.64;58.09;100789.47;7389579;19;1841;-36
2024/03/18 03:40:00;;;;;;;;;;;;;;;20.66;58.10;100804.44;7390481;19;1866;-36
2024/03/18 03:42:29;;;;;;;;;;;;;;;20.68;58.01;100787.34;7392029;19;1024;-36
2024/03/18 03:45:00;;;;;;;;;;;;;;;20.64;58.13;100803.75;7392817;19;1901;-36
2024/03/18 03:47:28;;;;;;;;;;;;;;;20.65;58.19;100780.41;7389682;19;1754;-36
2024/03/18 03:49:57;;;;;;;;;;;;;;;20.72;57.96;100789.59;7388975;19;1770;-36
2024/03/18 03:52:25;;;;;;;;;;;;;;;20.77;57.85;100798.06;7390184;19;1679;-36
2024/03/18 03:54:54;;;;;;;;;;;;;;;20.63;58.19;100831.63;7389205;19;1751;-37
2024/03/18 03:57:22;;;;;;;;;;;;;;;20.65;58.32;100786.66;7388173;19;1800;-36
2024/03/18 03:59:51;;;;;;;;;;;;;;;20.62;58.22;100783.41;7387920;19;1854;-36
2024/03/18 04:02:22;;;;;;;;;;;;;;;20.18;59.01;100785.72;7388629;19;1501;-36
2024/03/18 04:04:51;;;;;;;;;;;;;;;19.91;59.77;100783.75;7387001;19;1969;-36
2024/03/18 04:07:25;;;;;;;;;;;;;;;19.79;60.10;100850.09;7389242;19;1059;-36
2024/03/18 04:09:53;;;;;;;;;;;;;;;19.67;60.28;100806.41;7375065;19;1071;-36
2024/03/18 04:12:22;;;;;;;;;;;;;;;19.56;60.25;100812.75;7389152;19;1512;-36
2024/03/18 04:14:50;;;;;;;;;;;;;;;19.53;60.50;100814.88;7388481;19;1728;-36
2024/03/18 04:17:19;;;;;;;;;;;;;;;19.43;60.54;100813.00;7387684;19;1794;-36
2024/03/18 04:19:50;;;;;;;;;;;;;;;19.36;60.76;100814.56;7387376;19;1855;-36
2024/03/18 04:22:18;;;;;;;;;;;;;;;19.33;60.80;100822.00;7384958;19;1358;-36
2024/03/18 04:24:47;;;;;;;;;;;;;;;19.30;60.79;100839.22;7387017;19;1928;-36
2024/03/18 04:27:17;;;;;;;;;;;;;;;19.21;60.95;100829.31;7388625;19;1540;-36
2024/03/18 04:29:46;;;;;;;;;;;;;;;19.17;61.30;100827.88;7387905;19;1727;-36
2024/03/18 04:32:14;;;;;;;;;;;;;;;19.24;61.39;100834.41;7386874;19;1822;-37
2024/03/18 04:34:43;;;;;;;;;;;;;;;19.28;61.25;100839.38;7387499;19;1358;-36
2024/03/18 04:37:14;;;;;;;;;;;;;;;19.45;61.11;100839.69;7389462;19;1107;-36
2024/03/18 04:39:42;;;;;;;;;;;;;;;19.66;60.73;100851.19;7389277;19;1035;-36
2024/03/18 04:42:11;;;;;;;;;;;;;;;19.68;60.45;100849.22;7388335;19;1854;-36
2024/03/18 04:44:39;;;;;;;;;;;;;;;19.73;60.33;100837.25;7387818;19;1496;-43
2024/03/18 04:47:08;;;;;;;;;;;;;;;19.80;60.41;100846.44;7387086;19;1841;-37
2024/03/18 04:49:36;;;;;;;;;;;;;;;19.83;60.22;100847.00;7387483;19;1728;-36
2024/03/18 04:52:05;;;;;;;;;;;;;;;19.84;60.52;100837.97;7387626;19;1079;-36
2024/03/18 04:54:36;;;;;;;;;;;;;;;19.84;60.39;100843.34;7386550;19;1819;-36
2024/03/18 04:57:05;;;;;;;;;;;;;;;19.88;60.40;100838.56;7385479;19;1472;-36
2024/03/18 04:59:34;;;;;;;;;;;;;;;19.83;60.30;100857.72;7386812;19;1497;-36
2024/03/18 05:02:05;;;;;;;;;;;;;;;19.82;60.47;100850.69;7386321;19;1885;-36
2024/03/18 05:04:33;;;;;;;;;;;;;;;19.81;60.44;100851.66;7387054;19;1119;-36
2024/03/18 05:07:02;;;;;;;;;;;;;;;19.88;60.46;100853.81;7387037;19;1846;-36
2024/03/18 05:09:30;;;;;;;;;;;;;;;19.82;60.40;100855.22;7371667;19;1360;-36
2024/03/18 05:12:01;;;;;;;;;;;;;;;19.87;60.34;100877.09;7385530;19;1591;-36
2024/03/18 05:14:30;;;;;;;;;;;;;;;19.89;60.25;100847.44;7386357;19;1710;-36
2024/03/18 05:16:58;;;;;;;;;;;;;;;19.87;60.55;100842.22;7386555;19;1814;-36
2024/03/18 05:19:27;;;;;;;;;;;;;;;19.87;60.33;100847.56;7385193;19;1702;-36
2024/03/18 05:21:56;;;;;;;;;;;;;;;19.83;60.24;100856.88;7383484;19;1852;-36
2024/03/18 05:24:24;;;;;;;;;;;;;;;19.86;60.50;100856.63;7384809;19;1824;-36
2024/03/18 05:26:53;;;;;;;;;;;;;;;20.00;59.97;100840.09;7386273;19;1656;-36
2024/03/18 05:29:24;;;;;;;;;;;;;;;20.73;58.39;100852.22;7382259;19;1188;-36
2024/03/18 05:31:52;;;;;;;;;;;;;;;21.05;57.41;100844.66;7387425;19;1520;-36
2024/03/18 05:34:21;;;;;;;;;;;;;;;21.19;56.94;100847.88;7390361;19;1030;-36
2024/03/18 05:36:49;;;;;;;;;;;;;;;21.12;56.99;100855.66;7393733;19;1800;-36
2024/03/18 05:39:19;;;;;;;;;;;;;;;20.96;57.51;100844.69;7393546;19;1615;-36
2024/03/18 05:41:48;;;;;;;;;;;;;;;20.89;57.84;100855.19;7389591;19;1850;-36
2024/03/18 05:44:17;;;;;;;;;;;;;;;20.83;58.15;100853.94;7391422;19;1540;-37
2024/03/18 05:46:48;;;;;;;;;;;;;;;20.80;58.46;100864.13;7391641;19;1671;-36
2024/03/18 05:49:16;;;;;;;;;;;;;;;20.70;58.63;100850.69;7391531;19;1559;-36
2024/03/18 05:51:47;;;;;;;;;;;;;;;20.62;58.60;100859.47;7390118;19;1535;-36
2024/03/18 05:54:16;;;;;;;;;;;;;;;20.52;58.88;100850.56;7390315;19;1474;-41
2024/03/18 05:56:45;;;;;;;;;;;;;;;20.45;59.02;100868.22;7389112;19;1394;-36
2024/03/18 05:59:14;;;;;;;;;;;;;;;20.48;59.14;100884.06;7388991;19;1604;-37
2024/03/18 06:01:43;;;;;;;;;;;;;;;20.51;59.07;100875.69;7389237;19;1848;-36
2024/03/18 06:04:14;;;;;;;;;;;;;;;20.52;58.85;100874.72;7391551;19;1920;-36
2024/03/18 06:06:43;;;;;;;;;;;;;;;20.54;58.79;100872.75;7388080;19;1795;-36
2024/03/18 06:09:11;;;;;;;;;;;;;;;20.52;58.96;100853.25;7381180;19;1734;-37
2024/03/18 06:11:40;;;;;;;;;;;;;;;20.34;59.35;100854.97;7386101;19;1449;-37
2024/03/18 06:14:11;;;;;;;;;;;;;;;20.21;59.69;100861.47;7384466;19;2544;-37
2024/03/18 06:16:40;;;;;;;;;;;;;;;20.11;60.03;100859.75;7384314;19;1147;-36
2024/03/18 06:19:09;;;;;;;;;;;;;;;20.04;59.98;100862.16;7387125;19;1449;-36
2024/03/18 06:21:45;;;;;;;;;;;;;;;20.01;60.11;100859.75;7386154;19;1848;-36
2024/03/18 06:24:22;;;;;;;;;;;;;;;19.99;60.25;100864.41;7389687;19;2118;-36
2024/03/18 06:26:48;;;;;;;;;;;;;;;19.96;60.37;100856.66;7390959;19;1602;-36
2024/03/18 06:29:17;;;;;;;;;;;;;;;19.94;60.12;100890.81;7391366;19;1816;-36
2024/03/18 06:31:45;;;;;;;;;;;;;;;19.86;60.52;100856.63;7391126;19;1314;-36
2024/03/18 06:34:14;;;;;;;;;;;;;;;19.88;60.38;100851.13;7390361;19;1438;-36
2024/03/18 06:36:46;;;;;;;;;;;;;;;19.86;60.52;100853.94;7391683;19;1579;-37
2024/03/18 06:39:16;;;;;;;;;;;;;;;19.86;60.40;100846.72;7391487;19;1223;-36
2024/03/18 06:41:44;;;;;;;;;;;;;;;19.86;60.55;100853.94;7389784;19;1908;-36
2024/03/18 06:44:12;;;;;;;;;;;;;;;19.84;60.48;100870.19;7390525;19;1485;-36
2024/03/18 06:46:42;;;;;;;;;;;;;;;19.78;60.44;100853.78;7387547;19;1392;-36
2024/03/18 06:49:10;;;;;;;;;;;;;;;19.80;60.63;100851.81;7387979;19;1425;-37
2024/03/18 06:51:39;;;;;;;;;;;;;;;19.70;60.68;100853.59;7391104;19;1445;-36
2024/03/18 06:54:10;;;;;;;;;;;;;;;19.90;60.37;100857.22;7389673;19;1829;-37
2024/03/18 06:56:38;;;;;;;;;;;;;;;20.13;59.96;100853.25;7391091;19;1389;-37
2024/03/18 06:59:07;;;;;;;;;;;;;;;20.34;59.63;100860.31;7390591;19;1965;-37
2024/03/18 07:01:35;;;;;;;;;;;;;;;20.44;59.10;100858.47;7388145;19;1849;-36
2024/03/18 07:04:05;;;;;;;;;;;;;;;20.45;59.14;100852.09;7388256;19;1504;-36
2024/03/18 07:06:33;;;;;;;;;;;;;;;20.56;59.00;100857.34;7387979;19;1330;-36
2024/03/18 07:09:02;;;;;;;;;;;;;;;20.60;58.95;100845.34;7389310;19;1623;-36
2024/03/18 07:11:33;;;;;;;;;;;;;;;20.55;58.89;100862.84;7373719;19;1508;-36
2024/03/18 07:14:01;;;;;;;;;;;;;;;20.52;58.70;100849.72;7376161;19;1453;-36
2024/03/18 07:16:30;;;;;;;;;;;;;;;20.51;58.49;100846.16;7386968;19;1314;-36
2024/03/18 07:18:58;;;;;;;;;;;;;;;20.51;57.88;100856.91;7383836;19;1560;-37
2024/03/18 07:21:27;;;;;;;;;;;;;;;20.17;57.79;100851.97;7385894;19;1872;-37
2024/03/18 07:23:55;;;;;;;;;;;;;;;19.95;58.27;100861.13;7387774;19;1371;-36
2024/03/18 07:26:24;;;;;;;;;;;;;;;19.73;58.68;100856.88;7388742;19;1084;-36
2024/03/18 07:28:55;;;;;;;;;;;;;;;19.74;57.68;100853.22;7386903;19;1853;-36
2024/03/18 07:31:24;;;;;;;;;;;;;;;19.74;56.71;100853.22;7387684;19;1430;-36
2024/03/18 07:33:52;;;;;;;;;;;;;;;19.70;57.00;100832.16;7386387;19;1855;-36
2024/03/18 07:36:21;;;;;;;;;;;;;;;19.67;56.88;100852.03;7385990;19;1729;-36
2024/03/18 07:38:49;;;;;;;;;;;;;;;19.63;56.93;100845.25;7387174;19;1793;-36
2024/03/18 07:41:18;;;;;;;;;;;;;;;19.52;56.40;100858.75;7388593;19;1848;-36
2024/03/18 07:43:47;;;;;;;;;;;;;;;19.44;56.45;100857.63;7388002;19;1766;-36
2024/03/18 07:46:18;;;;;;;;;;;;;;;19.34;56.64;100851.38;7389191;19;1535;-36
2024/03/18 07:48:47;;;;;;;;;;;;;;;19.21;55.13;100850.75;7387528;19;1762;-36
2024/03/18 07:51:15;;;;;;;;;;;;;;;19.25;55.35;100857.53;7388664;19;1512;-36
2024/03/18 07:53:44;;;;;;;;;;;;;;;19.31;54.71;100848.97;7388295;19;1382;-36
2024/03/18 07:56:12;;;;;;;;;;;;;;;19.31;54.27;100830.19;7388016;19;1857;-36
2024/03/18 07:58:41;;;;;;;;;;;;;;;19.55;53.03;100845.09;7385197;19;1796;-36
2024/03/18 08:01:11;;;;;;;;;;;;;;;19.83;52.85;100844.31;7388440;19;1861;-36
2024/03/18 08:03:42;;;;;;;;;;;;;;;19.84;52.36;100842.50;7387774;19;1734;-36
2024/03/18 08:06:11;;;;;;;;;;;;;;;19.74;53.24;100837.13;7388516;19;1691;-36
2024/03/18 08:08:40;;;;;;;;;;;;;;;19.68;53.62;100832.28;7388085;19;1339;-36
2024/03/18 08:11:08;;;;;;;;;;;;;;;19.59;53.60;100841.97;7372373;19;1631;-36
2024/03/18 08:13:37;;;;;;;;;;;;;;;19.55;53.38;100843.25;7385766;19;2563;-36
2024/03/18 08:16:05;;;;;;;;;;;;;;;19.47;53.42;100835.88;7389038;19;1397;-36
2024/03/18 08:18:34;;;;;;;;;;;;;;;19.39;53.41;100833.03;7387824;19;1129;-36
2024/03/18 08:21:05;;;;;;;;;;;;;;;19.31;53.31;100824.81;7387533;19;1873;-36
2024/03/18 08:23:34;;;;;;;;;;;;;;;19.28;53.35;100831.31;7388332;19;1120;-36
2024/03/18 08:26:02;;;;;;;;;;;;;;;19.24;53.47;100835.25;7388347;19;1857;-36
2024/03/18 08:28:31;;;;;;;;;;;;;;;19.46;52.27;100831.50;7386969;19;1782;-36
2024/03/18 08:31:00;;;;;;;;;;;;;;;19.73;51.72;100830.03;7388257;19;1719;-37
2024/03/18 08:33:28;;;;;;;;;;;;;;;19.99;51.17;100822.28;7384914;19;1630;-36
2024/03/18 08:35:56;;;;;;;;;;;;;;;19.69;52.11;100828.59;7389030;19;936;-40
2024/03/18 08:38:29;;;;;;;;;;;;;;;19.65;52.31;100832.53;7387280;19;1936;-36
2024/03/18 08:40:57;;;;;;;;;;;;;;;19.56;52.32;100820.81;7388209;19;1750;-37
2024/03/18 08:43:26;;;;;;;;;;;;;;;19.54;52.28;100825.47;7385082;19;1825;-36
2024/03/18 08:45:55;;;;;;;;;;;;;;;19.47;52.19;100814.41;7387973;19;1008;-36
2024/03/18 08:48:24;;;;;;;;;;;;;;;19.39;52.18;100805.38;7386660;19;1734;-36
2024/03/18 08:50:53;;;;;;;;;;;;;;;19.41;51.94;100809.59;7387443;19;1612;-36
2024/03/18 08:53:22;;;;;;;;;;;;;;;19.29;52.27;100799.97;7387801;19;957;-36
2024/03/18 08:55:53;;;;;;;;;;;;;;;19.22;52.01;100793.50;7387031;19;1583;-36
2024/03/18 08:58:23;;;;;;;;;;;;;;;19.54;51.39;100804.00;7388143;19;1894;-36
2024/03/18 09:00:54;;;;;;;;;;;;;;;19.81;50.82;100792.63;7387055;19;1567;-36
2024/03/18 09:03:22;;;;;;;;;;;;;;;19.75;50.31;100795.88;7385318;19;1904;-36
2024/03/18 09:05:56;;;;;;;;;;;;;;;19.57;51.46;100800.19;7386345;19;1474;-42
2024/03/18 09:08:24;;;;;;;;;;;;;;;19.39;51.94;100784.75;7381932;19;1393;-37
2024/03/18 09:10:56;;;;;;;;;;;;;;;19.34;51.41;100781.66;7369308;19;1407;-36
2024/03/18 09:13:25;;;;;;;;;;;;;;;19.26;51.42;100779.66;7386303;19;1365;-36
2024/03/18 09:15:53;;;;;;;;;;;;;;;18.98;50.64;100788.44;7384874;19;1434;-36
2024/03/18 09:18:22;;;;;;;;;;;;;;;18.79;50.40;100773.97;7385172;19;1397;-36
2024/03/18 09:20:51;;;;;;;;;;;;;;;18.89;51.41;100787.44;7385782;19;1514;-36
2024/03/18 09:23:20;;;;;;;;;;;;;;;19.38;49.64;100775.03;7385083;19;1853;-37
2024/03/18 09:25:49;;;;;;;;;;;;;;;19.83;48.91;100798.69;7384541;19;1842;-37
2024/03/18 09:28:20;;;;;;;;;;;;;;;20.00;48.47;100762.25;7385205;19;1386;-36
2024/03/18 09:30:48;;;;;;;;;;;;;;;19.59;48.67;100768.72;7385410;19;1719;-36
2024/03/18 09:33:17;;;;;;;;;;;;;;;19.34;47.67;100760.22;7384275;19;1326;-36
2024/03/18 09:35:45;;;;;;;;;;;;;;;19.16;45.80;100745.75;7384082;19;1775;-37
2024/03/18 09:38:14;;;;;;;;;;;;;;;19.02;47.45;100746.97;7384804;19;1536;-37
2024/03/18 09:40:42;;;;;;;;;;;;;;;18.97;47.07;100762.63;7383196;19;1517;-37
2024/03/18 09:43:13;;;;;;;;;;;;;;;18.90;45.50;100754.31;7383608;19;1872;-38
2024/03/18 09:45:44;;;;;;;;;;;;;;;18.82;46.24;100749.63;7383488;19;1699;-36
2024/03/18 09:48:18;;;;;;;;;;;;;;;19.14;46.90;100753.09;7371539;19;1389;-36
2024/03/18 09:50:47;;;;;;;;;;;;;;;19.42;46.56;100741.59;7382669;19;1240;-37
2024/03/18 09:53:15;;;;;;;;;;;;;;;19.03;45.14;100738.81;7384846;19;1144;-36
2024/03/18 09:55:46;;;;;;;;;;;;;;;18.96;44.74;100734.13;7383047;19;1484;-36
2024/03/18 09:58:17;;;;;;;;;;;;;;;18.93;44.72;100735.25;7384235;19;1485;-40
2024/03/18 10:00:48;;;;;;;;;;;;;;;18.93;44.20;100724.53;7383629;19;1389;-38
2024/03/18 10:03:20;;;;;;;;;;;;;;;18.92;45.46;100730.03;7383134;19;1834;-38
2024/03/18 10:05:49;;;;;;;;;;;;;;;18.95;46.44;100727.94;7383138;19;1470;-36
2024/03/18 10:08:19;;;;;;;;;;;;;;;19.01;46.48;100731.91;7383606;19;1552;-36
2024/03/18 10:10:51;;;;;;;;;;;;;;;19.36;47.45;100726.06;7383320;19;1509;-36
2024/03/18 10:13:23;;;;;;;;;;;;;;;19.57;47.43;100706.31;7372511;19;1279;-37
2024/03/18 10:15:55;;;;;;;;;;;;;;;19.60;48.10;100708.72;7384314;19;1783;-39
2024/03/18 10:18:23;;;;;;;;;;;;;;;19.41;48.43;100710.38;7382632;19;1481;-36
2024/03/18 10:20:54;;;;;;;;;;;;;;;19.25;46.57;100704.72;7386252;19;1423;-36
2024/03/18 10:23:23;;;;;;;;;;;;;;;19.15;45.95;100701.19;7389998;19;1889;-37
2024/03/18 10:25:51;;;;;;;;;;;;;;;19.04;48.52;100711.03;7386798;19;1684;-37
2024/03/18 10:28:20;;;;;;;;;;;;;;;18.96;48.21;100691.25;7391105;19;1523;-37
2024/03/18 10:30:48;;;;;;;;;;;;;;;18.92;49.06;100696.06;7393279;19;1738;-36
2024/03/18 10:33:20;;;;;;;;;;;;;;;19.21;49.46;100700.63;7394174;19;1423;-36
2024/03/18 10:35:51;;;;;;;;;;;;;;;19.71;49.48;100691.63;7393935;19;1180;-36
2024/03/18 10:38:24;;;;;;;;;;;;;;;19.86;49.62;100699.13;7393581;19;1393;-36
2024/03/18 10:40:54;;;;;;;;;;;;;;;19.68;50.00;100703.50;7393405;19;1449;-36
2024/03/18 10:43:30;;;;;;;;;;;;;;;19.59;50.51;100698.97;7391762;19;1855;-36
2024/03/18 10:45:59;;;;;;;;;;;;;;;19.42;51.25;100684.44;7394315;19;1119;-36
2024/03/18 10:48:32;;;;;;;;;;;;;;;19.30;51.70;100690.91;7393748;19;1417;-36
2024/03/18 10:51:01;;;;;;;;;;;;;;;19.39;51.66;100714.19;7392458;19;1413;-36
2024/03/18 10:53:29;;;;;;;;;;;;;;;19.40;51.76;100687.25;7392410;19;1514;-36
2024/03/18 10:55:59;;;;;;;;;;;;;;;19.42;51.93;100681.75;7392147;19;1377;-36
2024/03/18 10:58:29;;;;;;;;;;;;;;;19.48;52.48;100668.63;7388959;19;1390;-36
2024/03/18 11:00:58;;;;;;;;;;;;;;;19.70;51.82;100674.69;7393145;19;1515;-36
2024/03/18 11:03:28;;;;;;;;;;;;;;;19.80;51.97;100670.19;7390970;19;1844;-36
2024/03/18 11:05:59;;;;;;;;;;;;;;;19.69;52.43;100702.50;7392266;19;1438;-36
2024/03/18 11:08:28;;;;;;;;;;;;;;;19.69;53.04;100659.56;7393317;19;1071;-36
2024/03/18 11:10:57;;;;;;;;;;;;;;;19.64;53.39;100673.41;7393576;19;1770;-36
2024/03/18 11:13:36;;;;;;;;;;;;;;;19.55;53.94;100660.00;7375367;19;1834;-36
2024/03/18 11:16:06;;;;;;;;;;;;;;;19.49;54.36;100656.06;7392652;19;1718;-36
2024/03/18 11:18:37;;;;;;;;;;;;;;;19.37;54.59;100635.72;7388679;19;1504;-36
2024/03/18 11:21:08;;;;;;;;;;;;;;;19.26;55.07;100655.50;7391633;19;1674;-36
2024/03/18 11:23:37;;;;;;;;;;;;;;;19.74;54.18;100633.22;7390547;19;1875;-36
2024/03/18 11:26:03;;;;;;;;;;;;;;;20.19;53.01;100621.78;7391101;19;1774;-36
2024/03/18 11:28:35;;;;;;;;;;;;;;;20.45;52.50;100626.47;7391218;19;1896;-36
2024/03/18 11:31:05;;;;;;;;;;;;;;;20.54;52.42;100620.22;7388341;19;2900;-36
2024/03/18 11:33:36;;;;;;;;;;;;;;;20.51;52.50;100609.75;7389473;19;1763;-36
2024/03/18 11:36:05;;;;;;;;;;;;;;;20.43;52.78;100606.97;7392188;19;1782;-36
2024/03/18 11:38:37;;;;;;;;;;;;;;;20.39;53.05;100608.25;7388331;19;1503;-36
2024/03/18 11:41:06;;;;;;;;;;;;;;;20.37;53.00;100603.06;7392498;19;1726;-36
2024/03/18 11:43:34;;;;;;;;;;;;;;;20.38;53.17;100603.91;7390688;19;1861;-37
2024/03/18 11:46:05;;;;;;;;;;;;;;;20.36;53.58;100592.47;7390958;19;1409;-37
2024/03/18 11:48:34;;;;;;;;;;;;;;;20.36;53.44;100601.34;7392161;19;1026;-36
2024/03/18 11:51:02;;;;;;;;;;;;;;;20.39;53.58;100589.47;7391408;19;1833;-36
2024/03/18 11:53:31;;;;;;;;;;;;;;;20.40;53.56;100583.13;7391669;19;1548;-36
2024/03/18 11:56:02;;;;;;;;;;;;;;;20.42;53.56;100567.69;7391047;19;1837;-36
2024/03/18 11:58:31;;;;;;;;;;;;;;;20.43;53.69;100582.81;7390940;19;1818;-36
2024/03/18 12:00:59;;;;;;;;;;;;;;;20.42;53.67;100567.69;7390895;19;1694;-36
2024/03/18 12:03:28;;;;;;;;;;;;;;;20.43;53.90;100556.81;7389037;19;1861;-36
2024/03/18 12:05:56;;;;;;;;;;;;;;;20.46;53.72;100552.97;7389096;19;1734;-36
2024/03/18 12:08:26;;;;;;;;;;;;;;;20.48;53.61;100550.13;7388924;19;1715;-36
2024/03/18 12:10:56;;;;;;;;;;;;;;;20.46;53.87;100545.75;7388634;19;1765;-36
2024/03/18 12:13:28;;;;;;;;;;;;;;;20.45;53.91;100545.88;7375328;19;1446;-36
2024/03/18 12:15:56;;;;;;;;;;;;;;;20.45;54.07;100533.34;7389426;19;1651;-36
2024/03/18 12:18:25;;;;;;;;;;;;;;;20.48;53.88;100540.22;7389502;19;1584;-37
2024/03/18 12:20:55;;;;;;;;;;;;;;;20.46;54.09;100526.09;7389475;19;1818;-36
2024/03/18 12:28:49;;;;;;;;;;;;;;;20.47;54.43;100527.78;7388940;19;1492;-36
2024/03/18 12:31:22;;;;;;;;;;;;;;;20.46;54.24;100516.19;7387722;19;1771;-36
2024/03/18 12:33:51;;;;;;;;;;;;;;;20.44;54.40;100518.19;7386496;19;1462;-36
2024/03/18 12:36:20;;;;;;;;;;;;;;;20.47;54.40;100522.41;7387335;19;1767;-36
2024/03/18 12:38:50;;;;;;;;;;;;;;;20.49;54.46;100498.94;7389908;19;1068;-36
2024/03/18 12:41:19;;;;;;;;;;;;;;;20.49;54.47;100509.66;7388919;19;1735;-36
2024/03/18 12:43:52;;;;;;;;;;;;;;;20.54;54.24;100504.69;7385153;19;1923;-36
2024/03/18 12:46:22;;;;;;;;;;;;;;;20.54;54.49;100495.81;7388097;19;1881;-36
2024/03/18 12:48:51;;;;;;;;;;;;;;;20.54;54.56;100506.56;7387917;19;1656;-36
2024/03/18 12:51:20;;;;;;;;;;;;;;;20.57;54.36;100482.91;7386738;19;1811;-36
2024/03/18 12:53:50;;;;;;;;;;;;;;;20.55;54.58;100484.06;7388701;19;1018;-36
2024/03/18 12:56:19;;;;;;;;;;;;;;;20.48;54.73;100467.72;7388935;19;1414;-36
2024/03/18 12:58:49;;;;;;;;;;;;;;;20.53;54.62;100465.44;7387890;19;1767;-36
2024/03/18 13:01:21;;;;;;;;;;;;;;;20.50;54.57;100462.19;7386294;19;2564;-36
2024/03/18 13:03:49;;;;;;;;;;;;;;;20.57;54.69;100468.63;7385285;19;1851;-36